Time;durP1;ratioP1;P1;durP2;ratioP2;P2;SDS_P1;SDS_P2;PMS_P1;PMS_P2;Temp;Humidity;BMP_temperature;BMP_pressure;BME280_temperature;BME280_humidity;BME280_pressure;Samples;Min_cycle;Max_cycle;Signal;HPM_P1;HPM_P2
2022/10/26 00:00:03;;;;;;;2.15;1.80;;;19.50;59.30;;;;;;5066749;28;46304;-71
2022/10/26 00:02:30;;;;;;;2.25;1.80;;;19.50;59.30;;;;;;5066834;28;45190;-69
2022/10/26 00:04:57;;;;;;;1.67;1.42;;;19.50;59.40;;;;;;5066970;28;45259;-69
2022/10/26 00:07:24;;;;;;;2.17;1.60;;;19.50;59.50;;;;;;5067255;28;45273;-70
2022/10/26 00:09:52;;;;;;;1.58;1.48;;;19.50;59.40;;;;;;5066709;28;45300;-70
2022/10/26 00:12:19;;;;;;;1.92;1.60;;;19.50;59.40;;;;;;5066650;28;45246;-70
2022/10/26 00:14:46;;;;;;;1.58;1.48;;;19.50;59.40;;;;;;5066762;28;45215;-70
2022/10/26 00:17:12;;;;;;;1.60;1.50;;;19.50;59.40;;;;;;5066881;28;45198;-70
2022/10/26 00:19:39;;;;;;;1.95;1.52;;;19.50;59.50;;;;;;5066538;28;46402;-70
2022/10/26 00:22:06;;;;;;;2.03;1.60;;;19.50;59.50;;;;;;5065347;28;45380;-69
2022/10/26 00:24:33;;;;;;;2.38;1.50;;;19.50;59.50;;;;;;5066634;28;45281;-70
2022/10/26 00:27:01;;;;;;;1.80;1.20;;;19.40;59.40;;;;;;5066898;28;45479;-70
2022/10/26 00:29:28;;;;;;;2.13;1.30;;;19.50;59.50;;;;;;5086151;28;46739;-70
2022/10/26 00:31:55;;;;;;;1.60;1.50;;;19.50;59.50;;;;;;5086733;28;45194;-70
2022/10/26 00:34:22;;;;;;;2.20;1.50;;;19.40;59.50;;;;;;5086842;28;45377;-70
2022/10/26 00:36:48;;;;;;;3.83;1.45;;;19.40;59.50;;;;;;5087009;28;45234;-70
2022/10/26 00:39:15;;;;;;;1.40;1.30;;;19.40;59.60;;;;;;5086619;28;45289;-70
2022/10/26 00:41:42;;;;;;;2.08;1.48;;;19.40;59.50;;;;;;5086654;28;45237;-70
2022/10/26 00:44:46;;;;;;;1.50;1.40;;;19.40;59.50;;;;;;5086619;28;45296;-71
2022/10/26 00:47:16;;;;;;;1.58;1.45;;;19.40;59.50;;;;;;5087103;28;45348;-71
2022/10/26 00:49:45;;;;;;;1.80;1.35;;;19.40;59.60;;;;;;5086633;28;45288;-70
2022/10/26 00:52:12;;;;;;;1.55;1.27;;;19.40;59.50;;;;;;5086559;28;45204;-70
2022/10/26 00:54:39;;;;;;;1.52;1.40;;;19.40;59.60;;;;;;5086966;28;45162;-71
2022/10/26 00:57:06;;;;;;;1.58;1.30;;;19.30;59.70;;;;;;5087377;28;45392;-71
2022/10/26 00:59:32;;;;;;;1.30;1.20;;;19.30;59.60;;;;;;5086637;28;46411;-71
2022/10/26 01:01:59;;;;;;;1.55;1.38;;;19.30;59.60;;;;;;5086777;28;45280;-71
2022/10/26 01:04:27;;;;;;;1.73;1.50;;;19.30;59.60;;;;;;5086712;28;45221;-70
2022/10/26 01:06:54;;;;;;;1.67;1.30;;;19.30;59.70;;;;;;5087099;28;45362;-71
2022/10/26 01:09:21;;;;;;;2.10;1.35;;;19.30;59.70;;;;;;5086581;28;47282;-71
2022/10/26 01:11:48;;;;;;;1.10;1.02;;;19.30;59.70;;;;;;5086428;28;45280;-72
2022/10/26 01:14:15;;;;;;;1.80;1.40;;;19.30;59.70;;;;;;5086694;28;45348;-70
2022/10/26 01:16:49;;;;;;;1.35;1.25;;;19.20;59.60;;;;;;5086845;28;45468;-71
2022/10/26 01:19:56;;;;;;;1.50;1.27;;;19.20;59.70;;;;;;5085939;28;46387;-70
2022/10/26 01:22:24;;;;;;;1.63;1.25;;;19.20;59.80;;;;;;5068038;28;45282;-71
2022/10/26 01:25:09;;;;;;;1.77;1.33;;;19.20;60.30;;;;;;5086605;28;45382;-71
2022/10/26 01:27:36;;;;;;;1.70;1.27;;;19.20;59.80;;;;;;5085521;28;45245;-72
2022/10/26 01:30:25;;;;;;;1.38;1.27;;;19.20;59.70;;;;;;5086247;28;45434;-71
2022/10/26 01:33:11;;;;;;;1.35;1.25;;;19.20;59.80;;;;;;5085923;28;45219;-70
2022/10/26 01:35:41;;;;;;;1.35;1.10;;;19.20;59.70;;;;;;5086381;28;45269;-70
2022/10/26 01:38:09;;;;;;;1.35;1.05;;;19.20;59.70;;;;;;5086322;28;45253;-69
2022/10/26 01:40:37;;;;;;;1.00;1.00;;;19.20;59.80;;;;;;5085854;28;46402;-70
2022/10/26 01:43:07;;;;;;;1.40;1.10;;;19.20;60.50;;;;;;5085754;28;45364;-69
2022/10/26 01:45:35;;;;;;;2.08;1.10;;;19.20;59.80;;;;;;5085928;28;45304;-70
2022/10/26 01:48:02;;;;;;;1.40;1.10;;;19.20;59.80;;;;;;5086132;28;45176;-70
2022/10/26 01:50:29;;;;;;;2.15;1.20;;;19.20;59.70;;;;;;5085333;28;46507;-70
2022/10/26 01:52:56;;;;;;;1.75;1.27;;;19.20;59.80;;;;;;5082802;28;45404;-70
2022/10/26 01:55:45;;;;;;;2.17;1.20;;;19.20;59.70;;;;;;5085600;28;45312;-70
2022/10/26 01:58:20;;;;;;;1.30;1.20;;;19.20;59.80;;;;;;5085653;28;45282;-69
2022/10/26 02:00:52;;;;;;;1.40;1.30;;;19.20;59.80;;;;;;5085284;28;45212;-70
2022/10/26 02:03:19;;;;;;;1.02;1.02;;;19.20;59.80;;;;;;5085259;28;45248;-69
2022/10/26 02:05:51;;;;;;;1.73;1.30;;;19.10;59.80;;;;;;5085225;28;45455;-68
2022/10/26 02:08:29;;;;;;;1.20;1.10;;;19.10;59.80;;;;;;5085368;28;45503;-69
2022/10/26 02:11:02;;;;;;;1.10;1.00;;;19.10;59.70;;;;;;5085143;28;45458;-69
2022/10/26 02:13:31;;;;;;;2.22;0.90;;;19.10;60.40;;;;;;5085116;28;45343;-69
2022/10/26 02:16:00;;;;;;;1.58;1.10;;;19.10;59.80;;;;;;5085447;28;45207;-70
2022/10/26 02:18:31;;;;;;;1.00;1.00;;;19.10;59.80;;;;;;5085560;28;45452;-69
2022/10/26 02:20:59;;;;;;;2.08;1.35;;;19.10;59.80;;;;;;5085056;28;45227;-69
2022/10/26 02:23:26;;;;;;;1.25;0.90;;;19.10;59.80;;;;;;5085080;28;45265;-69
2022/10/26 02:25:55;;;;;;;1.17;1.08;;;19.10;59.90;;;;;;5085385;28;45345;-70
2022/10/26 02:28:24;;;;;;;2.38;1.30;;;19.10;59.90;;;;;;5085457;28;45403;-70
2022/10/26 02:30:52;;;;;;;0.90;0.90;;;19.10;59.80;;;;;;5084761;28;46738;-70
2022/10/26 02:33:21;;;;;;;1.27;1.00;;;19.10;59.90;;;;;;5084997;28;45446;-68
2022/10/26 02:35:48;;;;;;;1.10;1.10;;;19.10;59.80;;;;;;5085145;28;45324;-69
2022/10/26 02:38:15;;;;;;;1.70;1.27;;;19.10;59.90;;;;;;5085228;28;45409;-70
2022/10/26 02:40:42;;;;;;;1.88;1.00;;;19.10;59.90;;;;;;5084904;28;45218;-70
2022/10/26 02:43:11;;;;;;;1.85;1.20;;;19.00;59.90;;;;;;5084677;28;45533;-69
2022/10/26 02:45:41;;;;;;;1.23;1.00;;;19.00;59.90;;;;;;5087824;28;45220;-70
2022/10/26 02:48:08;;;;;;;1.65;1.10;;;19.00;59.90;;;;;;5088769;28;45445;-70
2022/10/26 02:50:41;;;;;;;1.02;0.93;;;19.00;60.00;;;;;;5088083;28;45700;-69
2022/10/26 02:53:10;;;;;;;1.20;1.00;;;19.00;60.00;;;;;;5088264;28;45139;-69
2022/10/26 02:55:39;;;;;;;2.78;1.15;;;19.00;59.90;;;;;;5088371;28;45436;-69
2022/10/26 02:58:08;;;;;;;2.20;1.20;;;19.00;59.90;;;;;;5088488;28;45197;-70
2022/10/26 03:00:35;;;;;;;1.63;0.98;;;19.00;60.00;;;;;;5088238;28;45294;-69
2022/10/26 03:03:02;;;;;;;0.95;0.93;;;19.00;60.00;;;;;;5087999;28;45301;-70
2022/10/26 03:05:31;;;;;;;1.15;1.05;;;19.00;60.10;;;;;;5088067;28;45179;-70
2022/10/26 03:07:59;;;;;;;1.05;0.90;;;19.00;60.00;;;;;;5088346;28;45279;-69
2022/10/26 03:10:26;;;;;;;1.00;1.00;;;19.00;60.00;;;;;;5087868;28;45375;-70
2022/10/26 03:12:53;;;;;;;1.13;1.00;;;19.00;60.00;;;;;;5088034;28;45194;-69
2022/10/26 03:15:20;;;;;;;0.90;0.90;;;19.00;60.00;;;;;;5088039;28;45159;-69
2022/10/26 03:17:47;;;;;;;0.98;0.90;;;19.00;60.00;;;;;;5088256;28;45446;-69
2022/10/26 03:20:13;;;;;;;1.48;1.00;;;19.00;60.10;;;;;;5085072;28;45294;-70
2022/10/26 03:22:40;;;;;;;1.88;0.90;;;19.00;60.10;;;;;;5087725;28;45426;-69
2022/10/26 03:25:09;;;;;;;1.50;1.00;;;19.00;60.10;;;;;;5087752;28;45406;-69
2022/10/26 03:27:36;;;;;;;0.90;0.90;;;19.00;60.10;;;;;;5088150;28;45412;-69
2022/10/26 03:30:04;;;;;;;1.17;0.80;;;19.00;60.10;;;;;;5087618;28;45474;-69
2022/10/26 03:32:30;;;;;;;1.20;1.10;;;19.00;60.10;;;;;;5087556;28;45233;-69
2022/10/26 03:34:57;;;;;;;1.08;1.00;;;18.90;60.10;;;;;;5087866;28;45321;-69
2022/10/26 03:37:24;;;;;;;1.70;1.20;;;19.00;60.10;;;;;;5087905;28;45407;-70
2022/10/26 03:39:51;;;;;;;0.80;0.80;;;19.00;60.90;;;;;;5084829;28;46925;-69
2022/10/26 03:42:19;;;;;;;1.10;1.00;;;19.00;60.10;;;;;;5087613;28;45257;-70
2022/10/26 03:44:47;;;;;;;1.08;0.95;;;19.00;60.10;;;;;;5087138;28;45234;-69
2022/10/26 03:47:13;;;;;;;0.80;0.80;;;19.00;60.00;;;;;;5087738;28;45304;-70
2022/10/26 03:49:40;;;;;;;1.05;0.93;;;19.00;60.10;;;;;;5087172;28;46489;-70
2022/10/26 03:52:07;;;;;;;0.80;0.77;;;18.90;60.20;;;;;;5087259;28;45237;-69
2022/10/26 03:54:34;;;;;;;1.20;0.80;;;18.90;60.30;;;;;;5087839;28;45347;-70
2022/10/26 03:57:01;;;;;;;1.30;0.90;;;18.90;60.20;;;;;;5086254;28;45229;-70
2022/10/26 03:59:29;;;;;;;0.80;0.80;;;18.90;61.00;;;;;;5087312;28;45321;-70
2022/10/26 04:01:56;;;;;;;1.02;0.82;;;18.90;61.10;;;;;;5087137;28;45246;-69
2022/10/26 04:04:23;;;;;;;0.70;0.70;;;18.90;60.30;;;;;;5087190;28;45330;-69
2022/10/26 04:06:50;;;;;;;1.10;0.90;;;18.90;60.30;;;;;;5087323;28;45246;-69
2022/10/26 04:09:17;;;;;;;1.42;1.05;;;18.90;60.40;;;;;;5086973;28;46481;-69
2022/10/26 04:11:43;;;;;;;1.30;0.80;;;18.90;60.30;;;;;;5087011;28;45411;-69
2022/10/26 04:14:10;;;;;;;1.05;0.90;;;18.90;60.30;;;;;;5087051;28;45274;-69
2022/10/26 04:16:38;;;;;;;1.52;1.10;;;18.90;60.40;;;;;;5087231;28;45269;-69
2022/10/26 04:19:05;;;;;;;0.90;0.90;;;18.90;60.40;;;;;;5086756;28;45246;-70
2022/10/26 04:21:34;;;;;;;0.80;0.80;;;18.90;60.50;;;;;;5086818;28;45299;-70
2022/10/26 04:24:01;;;;;;;0.80;0.80;;;18.80;60.40;;;;;;5086956;28;45322;-70
2022/10/26 04:26:27;;;;;;;1.52;0.80;;;18.90;60.50;;;;;;5087222;28;45273;-70
2022/10/26 04:28:54;;;;;;;0.65;0.65;;;18.80;60.40;;;;;;5086612;28;45273;-70
2022/10/26 04:31:21;;;;;;;0.88;0.88;;;18.90;60.50;;;;;;5086827;28;45311;-69
2022/10/26 04:33:49;;;;;;;1.00;0.75;;;18.80;60.50;;;;;;5086669;28;45393;-69
2022/10/26 04:36:16;;;;;;;1.00;0.90;;;18.80;60.50;;;;;;5086889;28;45416;-69
2022/10/26 04:38:43;;;;;;;1.00;0.98;;;18.80;60.60;;;;;;5086870;28;45197;-69
2022/10/26 04:41:10;;;;;;;2.58;0.93;;;18.80;61.30;;;;;;5086699;28;45445;-69
2022/10/26 04:43:37;;;;;;;2.30;0.95;;;18.80;60.60;;;;;;5086497;28;45245;-69
2022/10/26 04:46:03;;;;;;;0.95;0.90;;;18.80;60.50;;;;;;5086792;28;45457;-69
2022/10/26 04:48:30;;;;;;;1.02;0.95;;;18.80;60.50;;;;;;5086292;28;46658;-69
2022/10/26 04:51:00;;;;;;;1.63;1.00;;;18.80;60.50;;;;;;5086369;28;45229;-70
2022/10/26 04:53:27;;;;;;;1.85;0.80;;;18.80;60.60;;;;;;5086586;28;45323;-70
2022/10/26 04:55:56;;;;;;;1.48;0.90;;;18.80;60.60;;;;;;5086771;28;45295;-70
2022/10/26 04:58:23;;;;;;;2.40;0.90;;;18.80;60.60;;;;;;5086508;28;47534;-70
2022/10/26 05:00:50;;;;;;;0.80;0.80;;;18.80;61.20;;;;;;5086500;28;45352;-69
2022/10/26 05:03:17;;;;;;;0.80;0.80;;;18.80;60.70;;;;;;5086611;28;45253;-70
2022/10/26 05:05:44;;;;;;;1.00;0.90;;;18.80;60.70;;;;;;5086583;28;45403;-69
2022/10/26 05:08:12;;;;;;;0.85;0.85;;;18.80;60.70;;;;;;5085739;28;45255;-69
2022/10/26 05:10:39;;;;;;;1.00;0.90;;;18.80;60.70;;;;;;5086085;28;45213;-69
2022/10/26 05:13:06;;;;;;;1.40;0.90;;;18.80;60.70;;;;;;5086409;28;45302;-69
2022/10/26 05:15:33;;;;;;;0.93;0.73;;;18.80;60.80;;;;;;5086536;28;45312;-69
2022/10/26 05:18:01;;;;;;;1.58;0.90;;;18.80;60.70;;;;;;5085861;28;45284;-70
2022/10/26 05:20:29;;;;;;;2.92;0.93;;;18.80;61.40;;;;;;5086261;28;45182;-69
2022/10/26 05:22:56;;;;;;;0.85;0.80;;;18.80;60.60;;;;;;5086163;28;45303;-68
2022/10/26 05:25:25;;;;;;;0.55;0.55;;;18.80;60.70;;;;;;5086060;28;45300;-69
2022/10/26 05:27:51;;;;;;;1.10;1.00;;;18.80;60.70;;;;;;5085955;28;46612;-70
2022/10/26 05:30:18;;;;;;;2.13;1.05;;;18.80;60.70;;;;;;5085692;28;45219;-70
2022/10/26 05:32:45;;;;;;;0.80;0.80;;;18.80;60.70;;;;;;5085996;28;45364;-69
2022/10/26 05:35:12;;;;;;;1.10;1.00;;;18.80;60.70;;;;;;5086114;28;45287;-69
2022/10/26 05:37:39;;;;;;;0.90;0.90;;;18.70;60.80;;;;;;5085721;28;45443;-69
2022/10/26 05:40:07;;;;;;;1.27;1.17;;;18.70;61.60;;;;;;5086010;28;45261;-69
2022/10/26 05:42:35;;;;;;;1.15;0.82;;;18.80;60.70;;;;;;5085840;28;45300;-69
2022/10/26 05:45:02;;;;;;;1.30;0.88;;;18.70;60.80;;;;;;5085752;28;45271;-69
2022/10/26 05:47:29;;;;;;;0.70;0.70;;;18.70;60.80;;;;;;5085543;28;46518;-69
2022/10/26 05:49:55;;;;;;;1.15;0.85;;;18.70;60.80;;;;;;5085582;28;45273;-70
2022/10/26 05:52:22;;;;;;;0.70;0.70;;;18.70;60.80;;;;;;5085532;28;45210;-69
2022/10/26 05:54:49;;;;;;;1.38;1.20;;;18.70;60.80;;;;;;5086535;28;45124;-70
2022/10/26 05:57:16;;;;;;;2.13;1.00;;;18.70;60.80;;;;;;5085747;28;45423;-70
2022/10/26 05:59:46;;;;;;;1.02;0.80;;;18.70;60.80;;;;;;5086001;28;45383;-70
2022/10/26 06:02:17;;;;;;;1.38;0.85;;;18.70;60.80;;;;;;5085394;28;45264;-69
2022/10/26 06:04:46;;;;;;;1.70;0.85;;;18.70;60.80;;;;;;5085485;28;45351;-70
2022/10/26 06:07:14;;;;;;;0.70;0.70;;;18.70;60.80;;;;;;5085113;28;45462;-70
2022/10/26 06:09:42;;;;;;;1.05;0.90;;;18.70;61.70;;;;;;5085429;28;45348;-70
2022/10/26 06:12:10;;;;;;;1.63;0.90;;;18.70;60.80;;;;;;5085517;28;45350;-70
2022/10/26 06:14:37;;;;;;;1.63;1.05;;;18.70;60.80;;;;;;5085693;28;45365;-70
2022/10/26 06:17:16;;;;;;;1.23;0.98;;;18.70;61.00;;;;;;5085173;28;46754;-69
2022/10/26 06:19:59;;;;;;;0.70;0.70;;;18.70;60.90;;;;;;5086844;27;45369;-70
2022/10/26 06:22:33;;;;;;;3.60;1.23;;;18.70;61.10;;;;;;5089196;28;45334;-70
2022/10/26 06:25:04;;;;;;;2.13;0.90;;;18.70;60.70;;;;;;5089234;28;45404;-70
2022/10/26 06:27:35;;;;;;;0.90;0.90;;;18.70;60.70;;;;;;5088716;28;45350;-70
2022/10/26 06:30:03;;;;;;;1.73;1.20;;;18.70;60.80;;;;;;5088937;28;45275;-69
2022/10/26 06:32:31;;;;;;;2.70;1.40;;;18.70;60.80;;;;;;5088790;28;45316;-69
2022/10/26 06:35:04;;;;;;;1.35;1.13;;;18.70;60.80;;;;;;5088882;28;45293;-69
2022/10/26 06:37:31;;;;;;;1.10;1.00;;;18.70;61.00;;;;;;5088565;28;45218;-69
2022/10/26 06:39:58;;;;;;;1.20;1.00;;;18.70;61.00;;;;;;5088391;28;45333;-69
2022/10/26 06:42:25;;;;;;;1.42;1.15;;;18.70;60.90;;;;;;5088608;28;45302;-70
2022/10/26 06:44:52;;;;;;;1.48;1.30;;;18.70;61.00;;;;;;5088077;28;45508;-70
2022/10/26 06:47:22;;;;;;;2.55;1.27;;;18.70;60.90;;;;;;5088215;28;46397;-70
2022/10/26 06:49:57;;;;;;;2.45;1.40;;;18.70;61.70;;;;;;5088298;28;45213;-70
2022/10/26 06:52:28;;;;;;;1.30;1.20;;;18.70;61.60;;;;;;5088341;28;45195;-69
2022/10/26 06:54:56;;;;;;;2.25;1.50;;;18.70;60.90;;;;;;5088546;28;45414;-69
2022/10/26 06:57:24;;;;;;;1.92;1.60;;;18.70;60.80;;;;;;5087980;28;45174;-69
2022/10/26 06:59:52;;;;;;;1.58;1.35;;;18.70;60.80;;;;;;5088173;28;45139;-70
2022/10/26 07:02:19;;;;;;;3.75;1.80;;;18.70;60.80;;;;;;5088181;28;45334;-70
2022/10/26 07:04:46;;;;;;;2.33;1.65;;;18.70;60.80;;;;;;5088256;28;45471;-70
2022/10/26 07:07:15;;;;;;;2.53;1.70;;;18.70;60.80;;;;;;5087762;28;46403;-69
2022/10/26 07:09:41;;;;;;;2.00;1.60;;;18.70;60.80;;;;;;5087889;28;45399;-69
2022/10/26 07:12:08;;;;;;;3.70;1.45;;;18.70;61.00;;;;;;5087953;28;45434;-70
2022/10/26 07:14:35;;;;;;;2.20;1.52;;;18.70;61.00;;;;;;5088245;28;45335;-70
2022/10/26 07:17:02;;;;;;;2.80;1.80;;;18.70;61.10;;;;;;5087669;28;46483;-69
2022/10/26 07:19:29;;;;;;;2.75;2.10;;;18.70;61.00;;;;;;5088016;28;45185;-70
2022/10/26 07:21:58;;;;;;;3.25;1.90;;;18.70;61.00;;;;;;5085381;28;45204;-70
2022/10/26 07:24:26;;;;;;;2.20;1.70;;;18.70;61.00;;;;;;5088091;28;45322;-70
2022/10/26 07:26:54;;;;;;;2.00;1.60;;;18.70;61.00;;;;;;5087624;28;45544;-70
2022/10/26 07:29:21;;;;;;;3.90;1.80;;;18.70;61.10;;;;;;5087495;28;45173;-70
2022/10/26 07:31:48;;;;;;;3.67;1.90;;;18.70;61.00;;;;;;5087402;28;45315;-70
2022/10/26 07:34:14;;;;;;;3.95;1.80;;;18.70;61.00;;;;;;5087870;28;45410;-70
2022/10/26 07:36:41;;;;;;;2.72;1.67;;;18.70;61.10;;;;;;5087423;28;45392;-70
2022/10/26 07:39:08;;;;;;;4.25;2.20;;;18.70;61.00;;;;;;5087474;28;45337;-70
2022/10/26 07:41:36;;;;;;;2.72;1.67;;;18.70;61.00;;;;;;5087757;28;45201;-69
2022/10/26 07:44:03;;;;;;;2.50;1.80;;;18.70;61.10;;;;;;5087394;28;45454;-69
2022/10/26 07:46:30;;;;;;;2.42;2.03;;;18.70;61.10;;;;;;5087151;28;46387;-69
2022/10/26 07:48:57;;;;;;;2.33;1.80;;;18.70;61.10;;;;;;5087232;28;45241;-69
2022/10/26 07:51:24;;;;;;;4.05;2.03;;;18.70;61.10;;;;;;5087276;28;45250;-70
2022/10/26 07:53:51;;;;;;;2.05;1.80;;;18.70;61.10;;;;;;5087830;28;45179;-69
2022/10/26 07:56:18;;;;;;;4.72;2.58;;;18.70;61.10;;;;;;5087071;28;45521;-68
2022/10/26 07:58:46;;;;;;;4.97;2.10;;;18.80;61.20;;;;;;5087144;28;45308;-69
2022/10/26 08:01:14;;;;;;;2.10;1.90;;;18.80;61.20;;;;;;5087327;28;45181;-69
2022/10/26 08:03:41;;;;;;;3.10;2.10;;;18.80;61.90;;;;;;5087400;28;45411;-69
2022/10/26 08:06:09;;;;;;;4.10;2.20;;;18.80;61.20;;;;;;5086763;28;45315;-69
2022/10/26 08:08:36;;;;;;;2.78;2.17;;;18.80;61.20;;;;;;5086942;28;45308;-69
2022/10/26 08:11:02;;;;;;;3.28;2.05;;;18.80;61.20;;;;;;5087133;28;45266;-69
2022/10/26 08:13:29;;;;;;;4.68;2.00;;;18.80;61.20;;;;;;5089113;28;45174;-69
2022/10/26 08:15:58;;;;;;;6.60;2.22;;;18.80;61.20;;;;;;5086725;28;45213;-69
2022/10/26 08:18:26;;;;;;;3.72;1.77;;;18.80;61.80;;;;;;5086864;28;45314;-69
2022/10/26 08:20:53;;;;;;;6.25;2.50;;;18.80;61.10;;;;;;5086989;28;45188;-69
2022/10/26 08:23:20;;;;;;;2.95;2.28;;;18.90;61.80;;;;;;5087161;28;45214;-69
2022/10/26 08:25:47;;;;;;;3.45;2.05;;;18.90;61.10;;;;;;5086611;28;48500;-69
2022/10/26 08:28:14;;;;;;;3.75;2.22;;;18.90;61.00;;;;;;5086654;28;45246;-69
2022/10/26 08:30:40;;;;;;;4.20;2.38;;;18.90;61.00;;;;;;5086897;28;45340;-69
2022/10/26 08:33:10;;;;;;;5.28;2.17;;;18.90;61.00;;;;;;5086973;28;45219;-69
2022/10/26 08:35:37;;;;;;;3.13;1.70;;;18.90;61.00;;;;;;5086864;28;45576;-69
2022/10/26 08:38:04;;;;;;;5.32;2.15;;;18.90;61.00;;;;;;5086472;28;45240;-70
2022/10/26 08:40:32;;;;;;;3.05;2.15;;;18.90;61.00;;;;;;5086545;28;45407;-70
2022/10/26 08:43:01;;;;;;;4.22;2.30;;;18.90;61.00;;;;;;5083170;28;45229;-69
2022/10/26 08:45:29;;;;;;;2.15;1.95;;;18.90;61.00;;;;;;5085741;28;47019;-70
2022/10/26 08:47:58;;;;;;;4.07;2.10;;;18.90;61.70;;;;;;5086127;28;45384;-69
2022/10/26 08:50:27;;;;;;;2.92;2.15;;;18.90;61.10;;;;;;5086112;28;45228;-68
2022/10/26 08:53:01;;;;;;;4.78;1.90;;;18.90;61.10;;;;;;5086429;28;45533;-69
2022/10/26 08:55:39;;;;;;;3.83;1.90;;;18.90;61.10;;;;;;5085943;28;45544;-68
2022/10/26 08:58:07;;;;;;;5.13;2.45;;;19.00;61.30;;;;;;5086315;28;45301;-70
2022/10/26 09:00:34;;;;;;;3.67;2.28;;;19.00;61.30;;;;;;5086069;28;45176;-69
2022/10/26 09:03:01;;;;;;;4.38;2.15;;;19.00;61.50;;;;;;5086076;28;45414;-69
2022/10/26 09:05:32;;;;;;;5.18;2.08;;;19.00;61.50;;;;;;5085691;28;46697;-69
2022/10/26 09:08:01;;;;;;;4.10;2.40;;;19.00;61.50;;;;;;5085850;28;45365;-69
2022/10/26 09:10:38;;;;;;;4.53;2.22;;;19.00;61.60;;;;;;5085955;28;45361;-69
2022/10/26 09:13:09;;;;;;;4.10;2.50;;;19.10;61.70;;;;;;5086406;28;45288;-70
2022/10/26 09:15:43;;;;;;;5.10;2.50;;;19.10;61.80;;;;;;5086985;28;47322;-70
2022/10/26 09:18:17;;;;;;;5.75;2.85;;;19.10;61.80;;;;;;5087192;28;45218;-71
2022/10/26 09:20:56;;;;;;;5.50;2.88;;;19.10;61.80;;;;;;5086842;28;45258;-71
2022/10/26 09:23:47;;;;;;;5.55;3.70;;;19.10;61.70;;;;;;5087529;28;45455;-71
2022/10/26 09:26:15;;;;;;;6.22;3.63;;;19.20;61.80;;;;;;5086756;28;46624;-70
2022/10/26 09:28:42;;;;;;;7.45;3.40;;;19.20;61.80;;;;;;5087331;28;45453;-71
2022/10/26 09:31:10;;;;;;;7.28;3.55;;;19.20;61.80;;;;;;5087212;28;45384;-70
2022/10/26 09:33:37;;;;;;;4.88;3.47;;;19.20;61.70;;;;;;5087229;28;45416;-70
2022/10/26 09:36:07;;;;;;;7.20;3.35;;;19.20;61.90;;;;;;5086971;28;45474;-70
2022/10/26 09:38:35;;;;;;;6.97;3.25;;;19.20;61.80;;;;;;5087069;28;45295;-71
2022/10/26 09:41:04;;;;;;;6.93;3.25;;;19.20;61.70;;;;;;5087313;28;45304;-69
2022/10/26 09:43:33;;;;;;;5.40;3.17;;;19.20;61.70;;;;;;5086573;28;45296;-70
2022/10/26 09:46:00;;;;;;;8.82;3.30;;;19.20;61.70;;;;;;5086719;28;46403;-70
2022/10/26 09:48:31;;;;;;;8.27;3.50;;;19.30;61.70;;;;;;5087136;28;45296;-69
2022/10/26 09:50:59;;;;;;;9.27;3.13;;;19.30;61.50;;;;;;5087378;28;45292;-70
2022/10/26 09:53:27;;;;;;;8.93;2.95;;;19.40;61.40;;;;;;5091279;27;45561;-69
2022/10/26 09:55:59;;;;;;;5.50;3.10;;;19.40;61.30;;;;;;5096628;28;45364;-69
2022/10/26 09:58:28;;;;;;;4.70;3.08;;;19.40;61.00;;;;;;5090590;28;45399;-70
2022/10/26 10:00:55;;;;;;;6.13;3.28;;;19.50;61.00;;;;;;5090508;28;45233;-71
2022/10/26 10:03:25;;;;;;;6.72;2.70;;;19.50;60.70;;;;;;5090760;28;45399;-71
2022/10/26 10:05:52;;;;;;;5.25;3.13;;;19.60;60.40;;;;;;5090063;28;46378;-69
2022/10/26 10:08:21;;;;;;;5.93;2.85;;;19.70;61.10;;;;;;5090082;28;45239;-69
2022/10/26 10:10:59;;;;;;;6.65;3.13;;;19.70;61.20;;;;;;5089650;28;45458;-70
2022/10/26 10:13:28;;;;;;;5.10;3.00;;;19.80;61.30;;;;;;5089893;28;45297;-69
2022/10/26 10:15:56;;;;;;;7.88;2.90;;;19.80;61.10;;;;;;5086705;28;45190;-70
2022/10/26 10:18:23;;;;;;;3.97;2.72;;;19.80;61.00;;;;;;5090025;28;45553;-71
2022/10/26 10:20:54;;;;;;;4.00;2.83;;;19.80;61.10;;;;;;5090240;28;45371;-71
2022/10/26 10:23:26;;;;;;;5.63;2.85;;;19.90;61.00;;;;;;5087816;28;45258;-71
2022/10/26 10:26:00;;;;;;;6.80;2.60;;;19.90;60.70;;;;;;5090116;28;46584;-72
2022/10/26 10:28:27;;;;;;;6.00;3.38;;;20.00;60.40;;;;;;5089829;28;45499;-71
2022/10/26 10:30:56;;;;;;;8.68;2.92;;;20.00;60.40;;;;;;5090101;28;45191;-71
2022/10/26 10:33:23;;;;;;;4.32;2.40;;;20.10;60.50;;;;;;5090203;28;45341;-70
2022/10/26 10:35:50;;;;;;;7.70;2.75;;;20.20;60.80;;;;;;5089716;28;45304;-71
2022/10/26 10:38:18;;;;;;;5.43;2.70;;;20.20;60.60;;;;;;5089926;28;45466;-71
2022/10/26 10:40:49;;;;;;;4.65;2.88;;;20.30;60.80;;;;;;5090098;28;45220;-72
2022/10/26 10:43:18;;;;;;;3.83;2.78;;;20.30;60.70;;;;;;5089838;28;45288;-72
2022/10/26 10:45:47;;;;;;;7.95;2.90;;;20.30;60.90;;;;;;5089533;28;47013;-72
2022/10/26 10:48:15;;;;;;;6.80;2.80;;;20.40;60.80;;;;;;5089379;28;45242;-71
2022/10/26 10:50:51;;;;;;;4.75;2.90;;;20.40;60.70;;;;;;5089359;28;45375;-69
2022/10/26 10:53:20;;;;;;;6.10;2.70;;;20.50;60.70;;;;;;5089450;28;45248;-70
2022/10/26 10:55:52;;;;;;;5.30;2.65;;;20.60;60.70;;;;;;5088997;28;45465;-70
2022/10/26 10:58:23;;;;;;;4.97;2.90;;;20.60;60.60;;;;;;5089181;28;45201;-70
2022/10/26 11:00:50;;;;;;;3.30;2.80;;;20.60;60.70;;;;;;5089586;28;45378;-71
2022/10/26 11:03:47;;;;;;;5.65;2.60;;;20.60;60.80;;;;;;5089132;27;45288;-71
2022/10/26 11:06:16;;;;;;;7.53;3.75;;;20.70;60.80;;;;;;5086805;27;46822;-70
2022/10/26 11:08:45;;;;;;;8.90;3.88;;;20.80;61.30;;;;;;5088815;28;45454;-68
2022/10/26 11:11:13;;;;;;;8.85;3.00;;;20.90;60.90;;;;;;5086849;28;45351;-69
2022/10/26 11:13:45;;;;;;;9.15;4.25;;;21.00;60.70;;;;;;5090182;27;45350;-70
2022/10/26 11:16:13;;;;;;;13.68;4.10;;;21.10;60.50;;;;;;5088386;28;46679;-71
2022/10/26 11:18:42;;;;;;;18.38;4.00;;;21.10;60.70;;;;;;5088794;28;45268;-70
2022/10/26 11:21:15;;;;;;;9.32;3.80;;;21.30;60.10;;;;;;5088594;28;45311;-70
2022/10/26 11:23:44;;;;;;;12.85;4.10;;;21.40;59.80;;;;;;5089288;28;45248;-70
2022/10/26 11:26:13;;;;;;;12.75;3.80;;;21.50;59.40;;;;;;5088357;28;47267;-68
2022/10/26 11:28:44;;;;;;;9.95;3.60;;;21.60;59.60;;;;;;5087884;28;45372;-69
2022/10/26 11:31:12;;;;;;;10.85;4.25;;;21.80;59.10;;;;;;5088618;28;45252;-69
2022/10/26 11:33:41;;;;;;;11.80;3.65;;;22.00;59.00;;;;;;5088878;28;45208;-71
2022/10/26 11:36:09;;;;;;;8.65;3.05;;;22.10;58.60;;;;;;5088310;28;46735;-69
2022/10/26 11:38:38;;;;;;;10.05;3.17;;;22.30;58.50;;;;;;5088536;28;45332;-69
2022/10/26 11:41:08;;;;;;;9.95;3.05;;;22.40;58.40;;;;;;5088341;28;45238;-72
2022/10/26 11:43:37;;;;;;;7.93;2.70;;;22.50;57.90;;;;;;5083432;27;45493;-69
2022/10/26 11:46:09;;;;;;;8.93;2.50;;;22.70;57.50;;;;;;5084598;28;45454;-70
2022/10/26 11:48:37;;;;;;;8.57;3.10;;;22.80;57.80;;;;;;5088277;28;45375;-69
2022/10/26 11:51:04;;;;;;;5.25;2.22;;;22.90;58.00;;;;;;5088014;28;45170;-72
2022/10/26 11:53:33;;;;;;;10.38;2.50;;;23.00;57.30;;;;;;5088568;28;45335;-72
2022/10/26 11:56:00;;;;;;;9.40;2.85;;;23.10;57.40;;;;;;5086571;28;47569;-72
2022/10/26 11:58:27;;;;;;;9.85;3.08;;;23.20;57.20;;;;;;5087154;28;45383;-70
2022/10/26 12:00:56;;;;;;;6.60;3.13;;;23.20;56.90;;;;;;5087851;28;45165;-68
2022/10/26 12:03:26;;;;;;;7.75;2.85;;;23.30;56.60;;;;;;5088469;28;45408;-69
2022/10/26 12:05:53;;;;;;;3.95;2.78;;;23.30;56.50;;;;;;5087302;28;46652;-70
2022/10/26 12:08:23;;;;;;;7.88;2.97;;;23.40;56.50;;;;;;5087907;28;45274;-71
2022/10/26 12:10:52;;;;;;;6.57;2.97;;;23.50;56.50;;;;;;5088278;28;45311;-71
2022/10/26 12:13:23;;;;;;;9.77;3.08;;;23.60;56.90;;;;;;5087990;28;45289;-70
2022/10/26 12:15:52;;;;;;;12.27;3.50;;;23.60;56.70;;;;;;5087688;28;47319;-70
2022/10/26 12:18:23;;;;;;;9.93;2.67;;;23.70;56.30;;;;;;5087395;28;45273;-70
2022/10/26 12:21:01;;;;;;;4.47;2.47;;;23.70;55.80;;;;;;5088354;28;45313;-70
2022/10/26 12:23:28;;;;;;;6.82;3.00;;;23.80;56.10;;;;;;5088244;28;45583;-70
2022/10/26 12:26:28;;;;;;;7.95;3.22;;;23.80;56.10;;;;;;5088337;28;46406;-70
2022/10/26 12:29:13;;;;;;;9.23;2.55;;;23.90;56.30;;;;;;5087552;28;45303;-69
2022/10/26 12:31:43;;;;;;;11.15;2.75;;;24.00;55.60;;;;;;5088506;28;45261;-69
2022/10/26 12:34:13;;;;;;;7.57;2.92;;;24.00;55.30;;;;;;5086640;28;45202;-69
2022/10/26 12:37:11;;;;;;;5.32;2.72;;;24.00;55.30;;;;;;5078554;28;45469;-69
2022/10/26 12:39:39;;;;;;;5.63;2.58;;;24.10;55.30;;;;;;5083493;28;45435;-68
2022/10/26 12:42:27;;;;;;;7.22;3.03;;;24.10;55.00;;;;;;5087736;28;45205;-68
2022/10/26 12:45:18;;;;;;;3.50;2.35;;;24.20;54.80;;;;;;5087424;28;45556;-68
2022/10/26 12:48:01;;;;;;;4.97;2.78;;;24.20;54.80;;;;;;5086026;28;45181;-68
2022/10/26 12:50:28;;;;;;;7.53;2.60;;;24.20;54.80;;;;;;5087235;28;45291;-68
2022/10/26 12:52:56;;;;;;;5.53;2.63;;;24.20;54.70;;;;;;5087782;28;45144;-68
2022/10/26 12:55:48;;;;;;;8.15;3.88;;;24.20;55.60;;;;;;5087438;28;45157;-68